createdAt,value
2023-06-01T00:00:29.189Z,87.03
2023-06-01T00:01:29.200Z,87.03
2023-06-01T00:02:29.318Z,87.13
2023-06-01T00:03:29.318Z,87.41
2023-06-01T00:04:29.327Z,87.32
2023-06-01T00:05:29.280Z,87.32
2023-06-01T00:06:29.292Z,87.32
2023-06-01T00:07:29.309Z,87.99
2023-06-01T00:08:29.334Z,88.09
2023-06-01T00:09:29.374Z,87.85
2023-06-01T00:10:29.378Z,87.76
2023-06-01T00:11:29.386Z,87.85
2023-06-01T00:12:29.402Z,88.13
2023-06-01T00:13:29.434Z,88.71
2023-06-01T00:14:29.442Z,89.48
2023-06-01T00:15:29.465Z,89.48
2023-06-01T00:16:29.554Z,89.58
2023-06-01T00:17:29.502Z,89.48
2023-06-01T00:18:29.524Z,89.48
2023-06-01T00:19:29.536Z,89.48
2023-06-01T00:20:29.555Z,89.76
2023-06-01T00:21:29.615Z,89.76
2023-06-01T00:22:29.609Z,89.48
2023-06-01T00:23:29.627Z,89.86
2023-06-01T00:24:29.627Z,89.76
2023-06-01T00:25:29.646Z,89.38
2023-06-01T00:26:29.665Z,89.09
2023-06-01T00:27:29.686Z,89.24
2023-06-01T00:28:29.704Z,89.86
2023-06-01T00:29:29.720Z,90.10
2023-06-01T00:30:29.738Z,90.10
2023-06-01T00:31:29.790Z,90.39
2023-06-01T00:32:29.781Z,90.39
2023-06-01T00:33:29.799Z,90.20
2023-06-01T00:34:29.821Z,90.48
2023-06-01T00:35:29.835Z,91.06
2023-06-01T00:36:29.849Z,91.06
2023-06-01T00:37:29.882Z,90.77
2023-06-01T00:38:29.889Z,90.96
2023-06-01T00:39:29.908Z,91.06
2023-06-01T00:40:29.924Z,90.67
2023-06-01T00:41:29.939Z,91.25
2023-06-01T00:42:29.969Z,91.44
2023-06-01T00:43:29.988Z,90.87
2023-06-01T00:44:29.993Z,91.25
2023-06-01T00:45:30.012Z,91.53
2023-06-01T00:46:30.053Z,91.25
2023-06-01T00:47:30.093Z,91.53
2023-06-01T00:48:30.065Z,91.53
2023-06-01T00:49:30.088Z,92.11
2023-06-01T00:50:30.102Z,92.35
2023-06-01T00:51:30.143Z,92.49
2023-06-01T00:52:30.141Z,92.30
2023-06-01T00:53:30.158Z,92.25
2023-06-01T00:54:30.175Z,92.74
2023-06-01T00:55:30.195Z,92.64
2023-06-01T00:56:30.208Z,93.31
2023-06-01T00:57:30.230Z,93.12
2023-06-01T00:58:30.248Z,93.40
2023-06-01T00:59:30.261Z,93.50
2023-06-01T01:00:30.292Z,93.60
2023-06-01T01:01:30.375Z,94.17
2023-06-01T01:02:30.348Z,93.79
2023-06-01T01:03:30.336Z,94.07
2023-06-01T01:04:30.374Z,93.98
2023-06-01T01:05:30.379Z,93.79
2023-06-01T01:06:30.391Z,94.07
2023-06-01T01:07:30.409Z,93.79
2023-06-01T01:08:30.427Z,93.98
2023-06-01T01:09:30.449Z,94.07
2023-06-01T01:10:30.472Z,93.79
2023-06-01T01:11:30.495Z,94.17
2023-06-01T01:12:30.505Z,94.74
2023-06-01T01:13:30.519Z,94.65
2023-06-01T01:14:30.535Z,94.36
2023-06-01T01:15:30.580Z,94.55
2023-06-01T01:16:30.602Z,94.46
2023-06-01T01:17:30.601Z,94.65
2023-06-01T01:18:30.635Z,95.07
2023-06-01T01:19:30.624Z,95.65
2023-06-01T01:20:30.644Z,96.32
2023-06-01T01:21:30.656Z,96.61
2023-06-01T01:22:30.677Z,96.99
2023-06-01T01:23:30.704Z,97.47
2023-06-01T01:24:30.712Z,97.94
2023-06-01T01:25:30.734Z,98.52
2023-06-01T01:26:30.750Z,98.42
2023-06-01T01:27:30.765Z,98.13
2023-06-01T01:28:30.782Z,98.61
2023-06-01T01:29:30.800Z,98.71
2023-06-01T01:30:30.822Z,98.61
2023-06-01T01:31:30.932Z,98.71
2023-06-01T01:32:30.882Z,98.23
2023-06-01T01:33:30.880Z,97.94
2023-06-01T01:34:30.891Z,98.13
2023-06-01T01:35:30.910Z,98.61
2023-06-01T01:36:30.921Z,99.57
2023-06-01T01:37:30.944Z,99.57
2023-06-01T01:38:30.967Z,99.99
2023-06-01T01:39:30.977Z,99.99
2023-06-01T01:40:30.997Z,99.99
2023-06-01T01:41:31.015Z,99.99
2023-06-01T01:42:31.032Z,99.99
2023-06-01T01:43:31.050Z,99.99
2023-06-01T01:44:31.066Z,99.99
2023-06-01T01:45:31.086Z,99.99
2023-06-01T01:46:31.140Z,99.99
2023-06-01T01:47:31.224Z,99.99
2023-06-01T01:48:31.135Z,99.99
2023-06-01T01:49:31.152Z,99.99
2023-06-01T01:50:31.178Z,99.99
2023-06-01T01:51:31.187Z,99.99
2023-06-01T01:52:31.214Z,99.99
2023-06-01T01:53:31.222Z,99.99
2023-06-01T01:54:31.241Z,99.99
2023-06-01T01:55:31.268Z,99.99
2023-06-01T01:56:31.274Z,99.99
2023-06-01T01:57:31.290Z,99.99
2023-06-01T01:58:31.310Z,99.99
2023-06-01T01:59:31.325Z,99.99
2023-06-01T02:00:31.347Z,99.99
2023-06-01T02:01:32.854Z,99.99
2023-06-01T02:02:31.462Z,99.99
2023-06-01T02:03:31.564Z,99.99
2023-06-01T02:04:31.415Z,99.99
2023-06-01T02:05:31.443Z,99.99
2023-06-01T02:06:31.458Z,99.99
2023-06-01T02:07:31.465Z,99.99
2023-06-01T02:08:31.484Z,99.99
2023-06-01T02:09:31.501Z,99.99
2023-06-01T02:10:31.517Z,99.99
2023-06-01T02:11:31.534Z,99.99
2023-06-01T02:12:31.557Z,99.99
2023-06-01T02:13:31.580Z,99.99
2023-06-01T02:14:31.585Z,99.99
2023-06-01T02:15:31.599Z,99.99
2023-06-01T02:16:31.646Z,99.99
2023-06-01T02:17:31.669Z,99.99
2023-06-01T02:18:31.652Z,99.99
2023-06-01T02:19:31.668Z,99.99
2023-06-01T02:20:31.683Z,99.99
2023-06-01T02:21:31.745Z,99.99
2023-06-01T02:22:31.722Z,99.99
2023-06-01T02:23:32.700Z,99.99
2023-06-01T02:24:31.755Z,99.99
2023-06-01T02:25:31.769Z,99.99
2023-06-01T02:26:31.793Z,99.99
2023-06-01T02:27:31.804Z,99.99
2023-06-01T02:28:31.819Z,99.99
2023-06-01T02:29:31.835Z,99.99
2023-06-01T02:30:31.868Z,99.99
2023-06-01T02:31:31.937Z,99.99
2023-06-01T02:32:31.955Z,99.99
2023-06-01T02:33:31.909Z,99.99
2023-06-01T02:34:31.921Z,99.99
2023-06-01T02:35:31.937Z,99.99
2023-06-01T02:36:31.955Z,99.99
2023-06-01T02:37:31.984Z,99.99
2023-06-01T02:38:31.994Z,99.99
2023-06-01T02:39:32.022Z,99.99
2023-06-01T02:40:32.023Z,99.99
2023-06-01T02:41:32.043Z,99.99
2023-06-01T02:42:32.069Z,99.99
2023-06-01T02:43:32.079Z,99.99
2023-06-01T02:44:32.091Z,99.99
2023-06-01T02:45:32.104Z,99.99
2023-06-01T02:46:32.190Z,99.99
2023-06-01T02:47:32.155Z,99.99
2023-06-01T02:48:32.167Z,99.99
2023-06-01T02:49:32.179Z,99.99
2023-06-01T02:50:32.192Z,99.99
2023-06-01T02:51:32.214Z,99.99
2023-06-01T02:52:32.222Z,99.99
2023-06-01T02:53:32.241Z,99.99
2023-06-01T02:54:32.256Z,99.99
2023-06-01T02:55:32.271Z,99.99
2023-06-01T02:56:32.288Z,99.99
2023-06-01T02:57:32.307Z,99.99
2023-06-01T02:58:32.321Z,99.99
2023-06-01T02:59:32.340Z,99.99
2023-06-01T03:00:32.350Z,99.99
2023-06-01T03:01:32.440Z,99.99
2023-06-01T03:02:32.414Z,99.99
2023-06-01T03:03:32.460Z,99.99
2023-06-01T03:04:32.426Z,99.99
2023-06-01T03:05:32.436Z,99.99
2023-06-01T03:06:32.463Z,99.99
2023-06-01T03:07:32.474Z,99.99
2023-06-01T03:08:32.490Z,99.99
2023-06-01T03:09:32.506Z,99.99
2023-06-01T03:10:32.521Z,99.99
2023-06-01T03:11:32.536Z,99.99
2023-06-01T03:12:32.550Z,99.99
2023-06-01T03:13:32.569Z,99.99
2023-06-01T03:14:32.583Z,99.99
2023-06-01T03:15:32.631Z,99.99
2023-06-01T03:16:32.615Z,99.99
2023-06-01T03:17:32.645Z,99.99
2023-06-01T03:18:32.692Z,99.99
2023-06-01T03:19:32.675Z,99.99
2023-06-01T03:20:32.699Z,99.99
2023-06-01T03:21:32.747Z,99.99
2023-06-01T03:22:32.712Z,99.99
2023-06-01T03:23:32.744Z,99.99
2023-06-01T03:24:32.749Z,99.99
2023-06-01T03:25:32.762Z,99.99
2023-06-01T03:26:32.779Z,99.99
2023-06-01T03:27:32.796Z,99.99
2023-06-01T03:28:32.842Z,99.99
2023-06-01T03:29:32.840Z,99.99
2023-06-01T03:30:32.846Z,99.99
2023-06-01T03:31:32.908Z,99.99
2023-06-01T03:32:32.897Z,99.99
2023-06-01T03:33:32.894Z,99.99
2023-06-01T03:34:32.912Z,99.99
2023-06-01T03:35:32.930Z,99.99
2023-06-01T03:36:32.941Z,99.99
2023-06-01T03:37:32.958Z,99.99
2023-06-01T03:38:32.973Z,99.99
2023-06-01T03:39:32.989Z,99.99
2023-06-01T03:40:33.004Z,99.99
2023-06-01T03:41:33.023Z,99.99
2023-06-01T03:42:33.040Z,99.99
2023-06-01T03:43:33.052Z,99.99
2023-06-01T03:44:33.075Z,99.99
2023-06-01T03:45:33.085Z,99.99
2023-06-01T03:46:33.124Z,99.99
2023-06-01T03:47:33.204Z,99.99
2023-06-01T03:48:33.135Z,99.99
2023-06-01T03:49:33.151Z,99.99
2023-06-01T03:50:33.169Z,99.99
2023-06-01T03:51:33.185Z,99.99
2023-06-01T03:52:33.202Z,99.99
2023-06-01T03:53:33.228Z,99.99
2023-06-01T03:54:33.230Z,99.99
2023-06-01T03:55:33.247Z,99.99
2023-06-01T03:56:33.275Z,99.99
2023-06-01T03:57:33.287Z,99.99
2023-06-01T03:58:33.304Z,99.99
2023-06-01T03:59:33.314Z,99.99
2023-06-01T04:00:33.328Z,99.99
2023-06-01T04:01:33.361Z,99.99
2023-06-01T04:02:33.487Z,99.99
2023-06-01T04:03:33.545Z,99.99
2023-06-01T04:04:33.395Z,99.99
2023-06-01T04:05:33.434Z,99.99
2023-06-01T04:06:33.427Z,99.99
2023-06-01T04:07:33.439Z,99.99
2023-06-01T04:08:33.456Z,99.99
2023-06-01T04:09:33.483Z,99.99
2023-06-01T04:10:33.489Z,99.99
2023-06-01T04:11:33.505Z,99.99
2023-06-01T04:12:33.522Z,99.99
2023-06-01T04:13:34.107Z,99.99
2023-06-01T04:14:33.559Z,99.99
2023-06-01T04:15:33.580Z,99.99
2023-06-01T04:16:33.621Z,99.99
2023-06-01T04:17:33.656Z,99.99
2023-06-01T04:18:33.622Z,99.99
2023-06-01T04:19:33.637Z,99.99
2023-06-01T04:20:33.647Z,99.99
2023-06-01T04:21:33.721Z,99.99
2023-06-01T04:22:33.685Z,99.99
2023-06-01T04:23:33.694Z,99.99
2023-06-01T04:24:33.712Z,99.99
2023-06-01T04:25:33.733Z,99.99
2023-06-01T04:26:33.768Z,99.99
2023-06-01T04:27:33.757Z,99.99
2023-06-01T04:28:33.803Z,99.99
2023-06-01T04:29:33.852Z,99.99
2023-06-01T04:30:33.810Z,99.99
2023-06-01T04:31:33.989Z,99.99
2023-06-01T04:32:33.873Z,99.99
2023-06-01T04:33:33.852Z,99.99
2023-06-01T04:34:33.875Z,99.99
2023-06-01T04:35:33.931Z,99.99
2023-06-01T04:36:33.921Z,99.99
2023-06-01T04:37:33.919Z,99.99
2023-06-01T04:38:33.934Z,99.99
2023-06-01T04:39:33.954Z,99.99
2023-06-01T04:40:33.976Z,99.99
2023-06-01T04:41:33.990Z,99.99
2023-06-01T04:42:34.017Z,99.99
2023-06-01T04:43:34.017Z,99.99
2023-06-01T04:44:35.488Z,99.99
2023-06-01T04:45:34.049Z,99.99
2023-06-01T04:46:34.099Z,99.99
2023-06-01T04:47:34.101Z,99.99
2023-06-01T04:48:34.102Z,99.99
2023-06-01T04:49:34.110Z,99.99
2023-06-01T04:50:34.130Z,99.99
2023-06-01T04:51:34.177Z,99.99
2023-06-01T04:52:34.160Z,99.99
2023-06-01T04:53:34.182Z,99.99
2023-06-01T04:54:34.193Z,99.99
2023-06-01T04:55:34.210Z,99.99
2023-06-01T04:56:34.226Z,99.99
2023-06-01T04:57:34.240Z,99.99
2023-06-01T04:58:34.267Z,99.99
2023-06-01T04:59:34.278Z,99.99
2023-06-01T05:00:34.292Z,99.99
2023-06-01T05:01:34.319Z,99.99
2023-06-01T05:02:34.362Z,99.99
2023-06-01T05:03:34.360Z,99.99
2023-06-01T05:04:34.360Z,99.99
2023-06-01T05:05:34.388Z,99.99
2023-06-01T05:06:34.390Z,99.99
2023-06-01T05:07:34.410Z,99.99
2023-06-01T05:08:34.429Z,99.99
2023-06-01T05:09:34.465Z,99.99
2023-06-01T05:10:34.460Z,99.99
2023-06-01T05:11:34.473Z,99.99
2023-06-01T05:12:34.508Z,99.99
2023-06-01T05:13:34.507Z,99.99
2023-06-01T05:14:34.537Z,99.99
2023-06-01T05:15:34.566Z,99.99
2023-06-01T05:16:34.625Z,99.99
2023-06-01T05:17:34.602Z,99.99
2023-06-01T05:18:34.591Z,99.99
2023-06-01T05:19:34.604Z,99.99
2023-06-01T05:20:34.626Z,99.99
2023-06-01T05:21:34.697Z,99.99
2023-06-01T05:22:34.657Z,99.99
2023-06-01T05:23:34.700Z,99.99
2023-06-01T05:24:34.689Z,99.99
2023-06-01T05:25:34.706Z,99.99
2023-06-01T05:26:34.728Z,99.99
2023-06-01T05:27:34.746Z,99.99
2023-06-01T05:28:35.602Z,99.99
2023-06-01T05:29:34.775Z,99.99
2023-06-01T05:30:34.801Z,99.99
2023-06-01T05:31:34.873Z,99.99
2023-06-01T05:32:34.869Z,99.99
2023-06-01T05:33:34.836Z,99.99
2023-06-01T05:34:34.853Z,99.99
2023-06-01T05:35:34.869Z,99.99
2023-06-01T05:36:34.888Z,99.99
2023-06-01T05:37:34.903Z,99.99
2023-06-01T05:38:34.922Z,99.99
2023-06-01T05:39:34.934Z,99.99
2023-06-01T05:40:34.951Z,99.99
2023-06-01T05:41:34.969Z,99.99
2023-06-01T05:42:34.983Z,99.99
2023-06-01T05:43:34.999Z,99.99
2023-06-01T05:44:35.035Z,99.99
2023-06-01T05:45:35.095Z,99.99
2023-06-01T05:46:35.050Z,99.99
2023-06-01T05:47:35.089Z,99.99
2023-06-01T05:48:35.091Z,99.99
2023-06-01T05:49:35.112Z,99.99
2023-06-01T05:50:35.126Z,99.99
2023-06-01T05:51:35.135Z,99.99
2023-06-01T05:52:35.153Z,99.99
2023-06-01T05:53:35.167Z,99.99
2023-06-01T05:54:35.185Z,99.99
2023-06-01T05:55:35.201Z,99.99
2023-06-01T05:56:35.236Z,99.99
2023-06-01T05:57:35.284Z,99.99
2023-06-01T05:58:35.258Z,99.99
2023-06-01T05:59:35.276Z,99.99
2023-06-01T06:00:35.297Z,99.99
2023-06-01T06:01:35.309Z,99.99
2023-06-01T06:02:35.381Z,99.99
2023-06-01T06:03:35.453Z,99.99
2023-06-01T06:04:35.403Z,99.99
2023-06-01T06:05:35.377Z,99.99
2023-06-01T06:06:35.630Z,99.99
2023-06-01T06:07:35.409Z,99.99
2023-06-01T06:08:35.434Z,99.99
2023-06-01T06:09:35.448Z,99.99
2023-06-01T06:10:35.468Z,99.99
2023-06-01T06:11:35.489Z,99.99
2023-06-01T06:12:35.508Z,99.99
2023-06-01T06:13:35.530Z,99.99
2023-06-01T06:14:35.549Z,99.99
2023-06-01T06:15:35.709Z,99.99
2023-06-01T06:16:35.651Z,99.99
2023-06-01T06:17:35.611Z,99.99
2023-06-01T06:18:35.606Z,99.99
2023-06-01T06:19:35.633Z,99.99
2023-06-01T06:20:35.643Z,99.99
2023-06-01T06:21:35.683Z,99.99
2023-06-01T06:22:35.702Z,99.99
2023-06-01T06:23:35.696Z,99.99
2023-06-01T06:24:35.740Z,99.99
2023-06-01T06:25:35.750Z,99.99
2023-06-01T06:26:35.760Z,99.99
2023-06-01T06:27:35.804Z,99.99
2023-06-01T06:28:35.786Z,99.99
2023-06-01T06:29:35.810Z,99.99
2023-06-01T06:30:35.841Z,99.99
2023-06-01T06:31:35.965Z,99.99
2023-06-01T06:32:35.968Z,99.99
2023-06-01T06:33:35.890Z,99.99
2023-06-01T06:34:35.896Z,99.99
2023-06-01T06:35:35.919Z,99.99
2023-06-01T06:36:35.933Z,99.99
2023-06-01T06:37:35.972Z,99.99
2023-06-01T06:38:35.974Z,99.99
2023-06-01T06:39:36.010Z,99.99
2023-06-01T06:40:36.012Z,99.99
2023-06-01T06:41:36.028Z,99.99
2023-06-01T06:42:36.045Z,99.99
2023-06-01T06:43:36.061Z,99.99
2023-06-01T06:44:36.102Z,99.99
2023-06-01T06:45:36.107Z,99.99
2023-06-01T06:46:36.148Z,99.99
2023-06-01T06:47:36.176Z,99.99
2023-06-01T06:48:36.166Z,99.99
2023-06-01T06:49:36.177Z,99.99
2023-06-01T06:50:36.206Z,99.99
2023-06-01T06:51:36.220Z,99.99
2023-06-01T06:52:36.237Z,99.99
2023-06-01T06:53:36.259Z,99.99
2023-06-01T06:54:36.275Z,99.99
2023-06-01T06:55:36.291Z,99.99
2023-06-01T06:56:36.327Z,99.99
2023-06-01T06:57:36.333Z,99.99
2023-06-01T06:58:36.351Z,99.99
2023-06-01T06:59:36.385Z,99.43
2023-06-01T07:00:36.412Z,98.95
2023-06-01T07:01:38.608Z,98.47
2023-06-01T07:02:36.469Z,98.38
2023-06-01T07:03:36.478Z,98.47
2023-06-01T07:04:36.471Z,98.47
2023-06-01T07:05:36.508Z,98.28
2023-06-01T07:06:36.517Z,98.76
2023-06-01T07:07:36.528Z,98.00
2023-06-01T07:08:36.550Z,98.52
2023-06-01T07:09:36.587Z,97.28
2023-06-01T07:10:36.595Z,96.42
2023-06-01T07:11:36.627Z,95.84
2023-06-01T07:12:36.646Z,95.65
2023-06-01T07:13:36.678Z,95.75
2023-06-01T07:14:36.676Z,95.75
2023-06-01T07:15:36.695Z,95.94
2023-06-01T07:16:36.748Z,95.94
2023-06-01T07:17:36.768Z,96.03
2023-06-01T07:18:36.756Z,94.93
2023-06-01T07:19:36.776Z,94.84
2023-06-01T07:20:36.798Z,94.84
2023-06-01T07:21:36.867Z,94.84
2023-06-01T07:22:36.841Z,94.74
2023-06-01T07:23:36.864Z,94.26
2023-06-01T07:24:36.883Z,93.69
2023-06-01T07:25:36.904Z,93.02
2023-06-01T07:26:36.928Z,93.30
2023-06-01T07:27:36.947Z,93.02
2023-06-01T07:28:36.966Z,92.82
2023-06-01T07:29:36.991Z,93.11
2023-06-01T07:30:37.007Z,93.06
2023-06-01T07:31:37.171Z,93.06
2023-06-01T07:32:37.266Z,93.06
2023-06-01T07:33:37.155Z,92.87
2023-06-01T07:34:37.128Z,93.06
2023-06-01T07:35:37.138Z,91.82
2023-06-01T07:36:37.136Z,91.82
2023-06-01T07:37:37.159Z,91.86
2023-06-01T07:38:38.233Z,91.77
2023-06-01T07:39:37.205Z,90.61
2023-06-01T07:40:37.227Z,90.47
2023-06-01T07:41:37.248Z,90.76
2023-06-01T07:42:37.266Z,90.76
2023-06-01T07:43:37.297Z,91.00
2023-06-01T07:44:37.310Z,90.52
2023-06-01T07:45:37.349Z,90.61
2023-06-01T07:46:37.465Z,90.52
2023-06-01T07:47:37.427Z,90.47
2023-06-01T07:48:37.417Z,90.08
2023-06-01T07:49:37.536Z,89.22
2023-06-01T07:50:37.454Z,89.17
2023-06-01T07:51:37.466Z,88.21
2023-06-01T07:52:37.496Z,87.82
2023-06-01T07:53:37.514Z,87.10
2023-06-01T07:54:37.544Z,86.91
2023-06-01T07:55:37.560Z,86.05
2023-06-01T07:56:37.583Z,86.05
2023-06-01T07:57:37.605Z,86.14
2023-06-01T07:58:37.650Z,85.08
2023-06-01T07:59:37.668Z,84.89
2023-06-01T08:00:37.681Z,84.89
2023-06-01T08:01:37.702Z,84.70
2023-06-01T08:02:37.777Z,84.99
2023-06-01T08:03:37.942Z,84.60
2023-06-01T08:04:37.775Z,83.64
2023-06-01T08:05:39.311Z,83.64
2023-06-01T08:06:37.821Z,83.30
2023-06-01T08:07:37.847Z,83.49
2023-06-01T08:08:37.889Z,83.45
2023-06-01T08:09:37.895Z,83.74
2023-06-01T08:10:37.920Z,84.17
2023-06-01T08:11:37.944Z,84.55
2023-06-01T08:12:37.968Z,84.36
2023-06-01T08:13:38.000Z,84.07
2023-06-01T08:14:38.026Z,83.83
2023-06-01T08:15:38.066Z,82.63
2023-06-01T08:16:38.095Z,82.86
2023-06-01T08:17:38.166Z,82.24
2023-06-01T08:18:38.130Z,81.86
2023-06-01T08:19:38.148Z,82.38
2023-06-01T08:20:38.174Z,82.09
2023-06-01T08:21:38.222Z,82.48
2023-06-01T08:22:38.232Z,81.94
2023-06-01T08:23:38.262Z,81.90
2023-06-01T08:24:38.275Z,82.23
2023-06-01T08:25:38.304Z,81.65
2023-06-01T08:26:38.346Z,80.79
2023-06-01T08:27:38.363Z,80.92
2023-06-01T08:28:38.381Z,80.63
2023-06-01T08:29:42.865Z,79.86
2023-06-01T08:30:38.440Z,79.48
2023-06-01T08:31:38.544Z,78.75
2023-06-01T08:32:38.565Z,77.98
2023-06-01T08:33:38.514Z,77.78
2023-06-01T08:34:38.583Z,77.78
2023-06-01T08:36:38.595Z,78.23
2023-06-01T08:37:38.619Z,78.42
2023-06-01T08:38:38.680Z,78.36
2023-06-01T08:39:38.677Z,77.59
2023-06-01T08:40:38.701Z,77.88
2023-06-01T08:41:38.746Z,77.11
2023-06-01T08:42:38.768Z,77.01
2023-06-01T08:43:38.785Z,77.01
2023-06-01T08:44:38.813Z,77.01
2023-06-01T08:45:38.838Z,77.01
2023-06-01T08:46:38.910Z,77.21
2023-06-01T08:47:38.908Z,76.82
2023-06-01T08:48:38.919Z,77.50
2023-06-01T08:49:38.945Z,77.31
2023-06-01T08:50:38.980Z,77.11
2023-06-01T08:51:39.022Z,77.40
2023-06-01T08:52:39.032Z,77.40
2023-06-01T08:53:39.055Z,77.50
2023-06-01T08:54:39.085Z,77.50
2023-06-01T08:55:39.109Z,77.59
2023-06-01T08:56:39.134Z,77.40
2023-06-01T08:57:39.162Z,76.96
2023-06-01T08:58:39.194Z,75.80
2023-06-01T08:59:39.219Z,75.90
2023-06-01T09:00:39.248Z,75.71
2023-06-01T09:01:39.424Z,75.61
2023-06-01T09:02:39.323Z,75.71
2023-06-01T09:03:39.368Z,76.18
2023-06-01T09:04:39.369Z,75.61
2023-06-01T09:05:39.390Z,75.03
2023-06-01T09:06:39.424Z,74.84
2023-06-01T09:07:39.441Z,74.74
2023-06-01T09:08:39.577Z,74.93
2023-06-01T09:09:39.638Z,75.16
2023-06-01T09:10:39.540Z,74.78
2023-06-01T09:11:39.560Z,74.40
2023-06-01T09:12:39.589Z,74.58
2023-06-01T09:13:39.627Z,74.78
2023-06-01T09:14:39.641Z,74.78
2023-06-01T09:15:39.681Z,74.78
2023-06-01T09:16:39.740Z,74.97
2023-06-01T09:17:39.785Z,74.78
2023-06-01T09:18:39.769Z,74.58
2023-06-01T09:19:39.800Z,74.58
2023-06-01T09:20:39.817Z,74.30
2023-06-01T09:21:39.915Z,74.91
2023-06-01T09:22:39.876Z,74.43
2023-06-01T09:23:39.910Z,74.05
2023-06-01T09:24:39.934Z,73.27
2023-06-01T09:25:39.962Z,73.95
2023-06-01T09:26:39.992Z,73.95
2023-06-01T09:27:40.022Z,73.50
2023-06-01T09:28:40.049Z,73.11
2023-06-01T09:29:40.097Z,73.11
2023-06-01T09:30:40.120Z,72.83
2023-06-01T09:31:40.214Z,72.19
2023-06-01T09:32:40.200Z,71.38
2023-06-01T09:33:40.204Z,71.42
2023-06-01T09:34:40.253Z,70.80
2023-06-01T09:35:40.271Z,70.74
2023-06-01T09:36:40.301Z,71.03
2023-06-01T09:37:40.319Z,70.74
2023-06-01T09:38:40.353Z,70.54
2023-06-01T09:39:40.381Z,69.97
2023-06-01T09:40:40.409Z,69.49
2023-06-01T09:41:40.441Z,70.06
2023-06-01T09:42:40.475Z,69.97
2023-06-01T09:43:40.510Z,69.87
2023-06-01T09:44:40.546Z,70.16
2023-06-01T09:45:40.559Z,70.16
2023-06-01T09:46:40.630Z,69.71
2023-06-01T09:47:40.664Z,69.62
2023-06-01T09:48:40.662Z,69.17
2023-06-01T09:49:40.676Z,68.78
2023-06-01T09:50:40.717Z,67.72
2023-06-01T09:51:40.737Z,67.62
2023-06-01T09:52:40.779Z,66.98
2023-06-01T09:53:40.798Z,67.08
2023-06-01T09:54:40.849Z,67.08
2023-06-01T09:55:40.860Z,67.11
2023-06-01T09:56:40.894Z,67.11
2023-06-01T09:57:40.925Z,67.01
2023-06-01T09:58:41.110Z,67.01
2023-06-01T09:59:40.984Z,66.95
2023-06-01T10:00:41.784Z,66.37
2023-06-01T10:01:41.065Z,65.79
2023-06-01T10:02:41.164Z,65.11
2023-06-01T10:03:41.190Z,65.50
2023-06-01T10:04:41.148Z,64.37
2023-06-01T10:05:41.168Z,64.27
2023-06-01T10:06:41.201Z,64.27
2023-06-01T10:07:41.233Z,63.98
2023-06-01T10:08:41.262Z,64.40
2023-06-01T10:09:41.337Z,63.79
2023-06-01T10:10:41.326Z,63.21
2023-06-01T10:11:41.358Z,63.53
2023-06-01T10:12:41.388Z,63.43
2023-06-01T10:13:41.423Z,63.43
2023-06-01T10:14:41.482Z,63.14
2023-06-01T10:15:41.524Z,63.04
2023-06-01T10:16:41.575Z,62.95
2023-06-01T10:17:41.575Z,63.24
2023-06-01T10:18:41.583Z,62.85
2023-06-01T10:19:41.609Z,63.17
2023-06-01T10:20:41.657Z,62.79
2023-06-01T10:21:41.700Z,62.69
2023-06-01T10:22:43.111Z,62.79
2023-06-01T10:23:41.736Z,62.79
2023-06-01T10:24:41.873Z,63.07
2023-06-01T10:25:41.799Z,63.01
2023-06-01T10:26:41.831Z,62.72
2023-06-01T10:27:44.039Z,62.04
2023-06-01T10:28:43.252Z,62.16
2023-06-01T10:29:41.930Z,61.98
2023-06-01T10:30:41.981Z,62.10
2023-06-01T10:31:42.242Z,61.13
2023-06-01T10:32:42.126Z,60.48
2023-06-01T10:33:42.061Z,59.41
2023-06-01T10:34:42.091Z,59.12
2023-06-01T10:35:42.128Z,58.67
2023-06-01T10:36:42.158Z,58.08
2023-06-01T10:37:42.185Z,57.89
2023-06-01T10:38:42.219Z,57.50
2023-06-01T10:39:42.272Z,57.89
2023-06-01T10:40:42.289Z,57.69
2023-06-01T10:41:42.318Z,57.89
2023-06-01T10:42:42.369Z,58.21
2023-06-01T10:43:42.418Z,58.11
2023-06-01T10:44:42.438Z,57.92
2023-06-01T10:45:42.671Z,57.75
2023-06-01T10:46:45.428Z,57.97
2023-06-01T10:47:42.538Z,57.49
2023-06-01T10:48:42.545Z,57.00
2023-06-01T10:49:42.579Z,55.93
2023-06-01T10:50:42.662Z,56.03
2023-06-01T10:51:42.685Z,56.35
2023-06-01T10:52:42.679Z,55.21
2023-06-01T10:53:42.726Z,55.57
2023-06-01T10:54:42.745Z,55.21
2023-06-01T10:55:42.777Z,55.40
2023-06-01T10:56:42.811Z,55.50
2023-06-01T10:57:42.843Z,54.85
2023-06-01T10:58:42.879Z,54.48
2023-06-01T10:59:42.925Z,54.38
2023-06-01T11:00:43.101Z,54.77
2023-06-01T11:01:43.056Z,53.89
2023-06-01T11:02:43.093Z,53.89
2023-06-01T11:03:43.106Z,53.99
2023-06-01T11:04:43.153Z,53.89
2023-06-01T11:05:43.124Z,52.83
2023-06-01T11:06:43.153Z,53.11
2023-06-01T11:07:43.184Z,53.19
2023-06-01T11:08:43.221Z,53.77
2023-06-01T11:09:43.258Z,53.87
2023-06-01T11:10:43.294Z,53.70
2023-06-01T11:11:43.321Z,53.11
2023-06-01T11:12:43.351Z,53.36
2023-06-01T11:13:43.386Z,54.03
2023-06-01T11:14:43.520Z,53.97
2023-06-01T11:15:44.612Z,54.16
2023-06-01T11:16:43.544Z,54.16
2023-06-01T11:17:43.563Z,54.46
2023-06-01T11:18:43.557Z,54.65
2023-06-01T11:19:43.586Z,53.97
2023-06-01T11:20:43.620Z,53.89
2023-06-01T11:21:43.675Z,53.50
2023-06-01T11:22:43.691Z,52.73
2023-06-01T11:23:43.724Z,52.24
2023-06-01T11:24:43.759Z,52.12
2023-06-01T11:25:43.787Z,52.34
2023-06-01T11:26:43.823Z,53.02
2023-06-01T11:27:43.854Z,52.24
2023-06-01T11:28:43.890Z,52.60
2023-06-01T11:29:43.922Z,51.95
2023-06-01T11:30:43.957Z,51.85
2023-06-01T11:31:44.022Z,51.58
2023-06-01T11:32:44.055Z,51.09
2023-06-01T11:33:44.054Z,51.21
2023-06-01T11:34:44.088Z,50.82
2023-06-01T11:35:44.133Z,50.63
2023-06-01T11:36:44.156Z,50.63
2023-06-01T11:37:44.194Z,50.14
2023-06-01T11:38:44.238Z,50.56
2023-06-01T11:39:44.266Z,50.75
2023-06-01T11:40:44.297Z,50.39
2023-06-01T11:41:44.328Z,50.78
2023-06-01T11:42:44.357Z,50.12
2023-06-01T11:43:44.393Z,50.29
2023-06-01T11:44:44.426Z,49.63
2023-06-01T11:45:44.799Z,49.24
2023-06-01T11:46:44.535Z,48.97
2023-06-01T11:47:44.547Z,49.26
2023-06-01T11:48:44.582Z,48.28
2023-06-01T11:49:44.596Z,48.28
2023-06-01T11:50:44.631Z,47.99
2023-06-01T11:51:44.668Z,47.80
2023-06-01T11:52:44.707Z,48.07
2023-06-01T11:53:44.736Z,48.36
2023-06-01T11:54:44.772Z,48.46
2023-06-01T11:55:44.806Z,48.36
2023-06-01T11:56:44.879Z,48.16
2023-06-01T11:57:44.876Z,48.85
2023-06-01T11:58:44.915Z,48.48
2023-06-01T11:59:44.950Z,47.77
2023-06-01T12:00:44.975Z,48.38
2023-06-01T12:01:45.083Z,48.48
2023-06-01T12:02:45.234Z,48.38
2023-06-01T12:03:45.119Z,48.58
2023-06-01T12:04:45.115Z,48.60
2023-06-01T12:05:45.157Z,48.50
2023-06-01T12:06:45.195Z,47.53
2023-06-01T12:07:45.216Z,47.04
2023-06-01T12:08:45.253Z,47.24
2023-06-01T12:09:45.290Z,47.60
2023-06-01T12:10:45.334Z,48.19
2023-06-01T12:11:45.411Z,47.70
2023-06-01T12:12:45.392Z,47.80
2023-06-01T12:13:45.427Z,47.38
2023-06-01T12:14:45.471Z,47.87
2023-06-01T12:15:45.504Z,48.26
2023-06-01T12:16:45.591Z,48.26
2023-06-01T12:17:45.790Z,48.73
2023-06-01T12:18:45.729Z,48.65
2023-06-01T12:19:45.643Z,48.94
2023-06-01T12:20:45.668Z,49.04
2023-06-01T12:21:45.743Z,49.04
2023-06-01T12:22:45.737Z,48.65
2023-06-01T12:23:45.775Z,48.94
2023-06-01T12:24:46.020Z,48.75
2023-06-01T12:25:45.842Z,48.54
2023-06-01T12:26:45.874Z,48.93
2023-06-01T12:27:45.911Z,49.02
2023-06-01T12:28:45.947Z,48.63
2023-06-01T12:29:45.984Z,48.83
2023-06-01T12:30:46.031Z,49.02
2023-06-01T12:31:46.044Z,48.93
2023-06-01T12:32:46.123Z,49.22
2023-06-01T12:33:46.114Z,49.39
2023-06-01T12:34:46.142Z,49.68
2023-06-01T12:35:46.179Z,49.68
2023-06-01T12:36:46.209Z,49.98
2023-06-01T12:37:46.241Z,50.07
2023-06-01T12:38:46.277Z,50.00
2023-06-01T12:39:46.313Z,50.10
2023-06-01T12:40:46.376Z,50.00
2023-06-01T12:41:46.379Z,49.73
2023-06-01T12:42:46.409Z,49.43
2023-06-01T12:43:46.442Z,49.53
2023-06-01T12:44:46.477Z,49.33
2023-06-01T12:45:46.517Z,48.94
2023-06-01T12:46:46.601Z,48.83
2023-06-01T12:47:46.594Z,49.12
2023-06-01T12:48:46.613Z,48.93
2023-06-01T12:49:46.644Z,48.54
2023-06-01T12:50:46.682Z,48.63
2023-06-01T12:51:46.742Z,48.63
2023-06-01T12:52:46.781Z,48.44
2023-06-01T12:53:46.821Z,48.63